createdAt,value
2018-03-11T00:00:05.224Z,8.34
2018-03-11T00:01:15.438Z,8.32
2018-03-11T00:02:25.712Z,8.32
2018-03-11T00:03:35.868Z,8.34
2018-03-11T00:04:46.033Z,8.35
2018-03-11T00:05:55.925Z,8.32
2018-03-11T00:07:05.706Z,8.37
2018-03-11T00:08:15.881Z,8.31
2018-03-11T00:09:26.047Z,8.31
2018-03-11T00:10:36.204Z,8.34
2018-03-11T00:11:46.355Z,8.42
2018-03-11T00:12:56.638Z,8.42
2018-03-11T00:14:05.918Z,8.42
2018-03-11T00:15:16.108Z,8.39
2018-03-11T00:16:26.376Z,8.4
2018-03-11T00:17:36.544Z,8.37
2018-03-11T00:18:46.448Z,8.45
2018-03-11T00:19:56.604Z,8.39
2018-03-11T00:21:06.729Z,8.35
2018-03-11T00:22:16.966Z,8.37
2018-03-11T00:23:27.172Z,8.45
2018-03-11T00:24:37.059Z,8.37
2018-03-11T00:25:47.092Z,8.43
2018-03-11T00:26:57.249Z,8.37
2018-03-11T00:28:07.072Z,8.45
2018-03-11T00:29:17.454Z,8.45
2018-03-11T00:30:27.665Z,8.49
2018-03-11T00:31:37.559Z,8.45
2018-03-11T00:32:47.740Z,8.37
2018-03-11T00:33:57.353Z,8.42
2018-03-11T00:35:06.990Z,8.39
2018-03-11T00:36:17.136Z,8.4
2018-03-11T00:37:27.024Z,8.35
2018-03-11T00:38:37.180Z,8.34
2018-03-11T00:39:47.446Z,8.28
2018-03-11T00:40:57.567Z,8.28
2018-03-11T00:42:07.455Z,8.31
2018-03-11T00:43:17.405Z,8.2
2018-03-11T00:44:27.323Z,8.16
2018-03-11T00:45:37.548Z,8.17
2018-03-11T00:46:47.698Z,8.16
2018-03-11T00:47:57.857Z,8.21
2018-03-11T00:49:08.058Z,8.17
2018-03-11T00:50:18.340Z,8.15
2018-03-11T00:51:28.589Z,8.13
2018-03-11T00:52:38.501Z,8.12
2018-03-11T00:53:48.662Z,8.02
2018-03-11T00:54:58.821Z,8.12
2018-03-11T00:56:08.445Z,8.02
2018-03-11T00:57:18.604Z,8.02
2018-03-11T00:58:28.813Z,7.97
2018-03-11T00:59:38.987Z,8.07
2018-03-11T01:00:49.349Z,8.02
2018-03-11T01:01:59.612Z,7.99
2018-03-11T01:03:09.872Z,8.05
2018-03-11T01:04:20.041Z,7.99
2018-03-11T01:05:30.254Z,8.02
2018-03-11T01:06:40.463Z,8.03
2018-03-11T01:07:50.349Z,7.99
2018-03-11T01:09:00.493Z,7.99
2018-03-11T01:10:10.876Z,8.02
2018-03-11T01:11:20.778Z,7.99
2018-03-11T01:12:31.067Z,8.03
2018-03-11T01:13:41.205Z,8.03
2018-03-11T01:14:51.555Z,7.98
2018-03-11T01:16:01.672Z,8.06
2018-03-11T01:17:11.610Z,8.1
2018-03-11T01:18:21.777Z,8.06
2018-03-11T01:19:31.718Z,7.97
2018-03-11T01:20:41.858Z,8.1
2018-03-11T01:21:52.034Z,8.03
2018-03-11T01:23:02.235Z,8.06
2018-03-11T01:24:12.369Z,8.03
2018-03-11T01:25:22.514Z,8.02
2018-03-11T01:26:32.292Z,7.91
2018-03-11T01:27:41.808Z,7.92
2018-03-11T01:28:51.953Z,7.84
2018-03-11T01:30:02.129Z,7.88
2018-03-11T01:31:12.268Z,7.85
2018-03-11T01:32:22.424Z,7.79
2018-03-11T01:33:32.307Z,7.72
2018-03-11T01:34:42.217Z,7.8
2018-03-11T01:35:52.366Z,7.82
2018-03-11T01:37:02.332Z,7.77
2018-03-11T01:38:12.570Z,7.77
2018-03-11T01:39:22.724Z,7.76
2018-03-11T01:40:33.030Z,7.7
2018-03-11T01:41:43.220Z,7.69
2018-03-11T01:42:53.126Z,7.84
2018-03-11T01:44:03.304Z,7.72
2018-03-11T01:45:13.227Z,7.7
2018-03-11T01:46:23.591Z,7.73
2018-03-11T01:47:33.763Z,7.76
2018-03-11T01:48:43.934Z,7.74
2018-03-11T01:49:54.314Z,7.73
2018-03-11T01:51:04.528Z,7.59
2018-03-11T01:52:14.696Z,7.72
2018-03-11T01:53:24.956Z,7.64
2018-03-11T01:54:35.168Z,7.62
2018-03-11T01:55:45.420Z,7.64
2018-03-11T01:56:55.582Z,7.64
2018-03-11T01:58:05.775Z,7.62
2018-03-11T01:59:15.890Z,7.76
2018-03-11T02:00:26.021Z,7.69
2018-03-11T02:01:35.901Z,7.77
2018-03-11T02:02:46.025Z,7.79
2018-03-11T02:03:55.917Z,7.77
2018-03-11T02:05:06.085Z,7.7
2018-03-11T02:06:15.604Z,7.72
2018-03-11T02:07:25.638Z,7.59
2018-03-11T02:08:35.542Z,7.72
2018-03-11T02:09:45.690Z,7.64
2018-03-11T02:10:55.925Z,7.69
2018-03-11T02:12:05.819Z,7.61
2018-03-11T02:13:15.338Z,7.66
2018-03-11T02:14:25.630Z,7.74
2018-03-11T02:15:35.774Z,7.61
2018-03-11T02:16:45.688Z,7.59
2018-03-11T02:17:55.634Z,7.64
2018-03-11T02:19:05.525Z,7.61
2018-03-11T02:20:15.673Z,7.66
2018-03-11T02:21:25.995Z,7.58
2018-03-11T02:22:36.187Z,7.47
2018-03-11T02:23:46.371Z,7.54
2018-03-11T02:24:56.596Z,7.4
2018-03-11T02:26:06.363Z,7.48
2018-03-11T02:27:16.527Z,7.4
2018-03-11T02:28:26.446Z,7.37
2018-03-11T02:29:36.570Z,7.39
2018-03-11T02:30:46.781Z,7.48
2018-03-11T02:31:56.681Z,7.41
2018-03-11T02:33:06.822Z,7.33
2018-03-11T02:34:16.960Z,7.39
2018-03-11T02:35:27.200Z,7.37
2018-03-11T02:36:37.371Z,7.33
2018-03-11T02:37:47.608Z,7.37
2018-03-11T02:38:57.741Z,7.33
2018-03-11T02:40:07.653Z,7.26
2018-03-11T02:41:17.611Z,7.34
2018-03-11T02:42:27.799Z,7.36
2018-03-11T02:43:37.959Z,7.36
2018-03-11T02:44:48.090Z,7.29
2018-03-11T02:45:57.981Z,7.26
2018-03-11T02:47:07.882Z,7.31
2018-03-11T02:48:18.151Z,7.26
2018-03-11T02:49:28.128Z,7.18
2018-03-11T02:50:38.302Z,7.2
2018-03-11T02:51:48.439Z,7.22
2018-03-11T02:52:58.051Z,7.14
2018-03-11T02:54:08.298Z,7.1
2018-03-11T02:55:18.470Z,7.1
2018-03-11T02:56:28.725Z,7.1
2018-03-11T02:57:38.718Z,7.13
2018-03-11T02:58:48.834Z,7
2018-03-11T02:59:58.988Z,7.05
2018-03-11T03:01:08.965Z,7.02
2018-03-11T03:02:19.195Z,7.02
2018-03-11T03:03:29.102Z,6.97
2018-03-11T03:04:39.213Z,7.1
2018-03-11T03:05:49.063Z,7.13
2018-03-11T03:06:59.755Z,7.15
2018-03-11T03:08:09.983Z,7.15
2018-03-11T03:09:20.113Z,7.13
2018-03-11T03:10:30.055Z,7.18
2018-03-11T03:11:39.922Z,7.11
2018-03-11T03:12:49.523Z,7.06
2018-03-11T03:13:59.652Z,7.18
2018-03-11T03:15:09.283Z,7.15
2018-03-11T03:16:19.181Z,7.08
2018-03-11T03:17:29.145Z,6.97
2018-03-11T03:18:39.309Z,7.02
2018-03-11T03:19:49.889Z,6.99
2018-03-11T03:20:59.797Z,7.03
2018-03-11T03:22:09.416Z,7
2018-03-11T03:23:19.368Z,7.05
2018-03-11T03:24:29.724Z,7
2018-03-11T03:25:39.383Z,7.03
2018-03-11T03:26:48.989Z,7.06
2018-03-11T03:27:59.222Z,7.03
2018-03-11T03:29:09.577Z,7
2018-03-11T03:30:19.959Z,6.99
2018-03-11T03:31:30.099Z,7.05
2018-03-11T03:32:40.476Z,6.99
2018-03-11T03:33:50.933Z,7.02
2018-03-11T03:35:01.099Z,7
2018-03-11T03:36:11.155Z,7.03
2018-03-11T03:37:21.369Z,7
2018-03-11T03:38:31.631Z,7.03
2018-03-11T03:39:41.504Z,6.97
2018-03-11T03:40:51.648Z,7.02
2018-03-11T03:42:01.804Z,6.99
2018-03-11T03:43:12.182Z,7.06
2018-03-11T03:44:22.063Z,6.99
2018-03-11T03:45:31.945Z,7.03
2018-03-11T03:46:41.468Z,7.02
2018-03-11T03:47:51.597Z,6.99
2018-03-11T03:49:01.455Z,7.02
2018-03-11T03:50:11.556Z,7.03
2018-03-11T03:51:21.438Z,6.99
2018-03-11T03:52:31.034Z,6.93
2018-03-11T03:53:41.253Z,6.99
2018-03-11T03:54:51.132Z,6.92
2018-03-11T03:56:01.273Z,6.85
2018-03-11T03:57:11.672Z,6.84
2018-03-11T03:58:21.780Z,6.85
2018-03-11T03:59:31.903Z,6.9
2018-03-11T04:00:41.862Z,6.9
2018-03-11T04:01:51.980Z,6.93
2018-03-11T04:03:02.340Z,6.87
2018-03-11T04:04:12.510Z,6.93
2018-03-11T04:05:22.403Z,6.92
2018-03-11T04:06:32.715Z,6.89
2018-03-11T04:07:43.132Z,6.93
2018-03-11T04:08:53.259Z,6.93
2018-03-11T04:10:03.052Z,6.87
2018-03-11T04:11:13.219Z,6.9
2018-03-11T04:12:22.822Z,6.95
2018-03-11T04:13:33.257Z,6.87
2018-03-11T04:14:43.418Z,6.9
2018-03-11T04:15:53.269Z,6.87
2018-03-11T04:17:03.443Z,6.87
2018-03-11T04:18:12.949Z,6.87
2018-03-11T04:19:23.055Z,6.89
2018-03-11T04:20:33.181Z,6.87
2018-03-11T04:21:43.181Z,6.81
2018-03-11T04:22:53.323Z,6.81
2018-03-11T04:24:03.210Z,6.79
2018-03-11T04:25:12.844Z,6.85
2018-03-11T04:26:22.991Z,6.79
2018-03-11T04:27:33.326Z,6.74
2018-03-11T04:28:43.544Z,6.9
2018-03-11T04:29:53.401Z,6.79
2018-03-11T04:31:03.545Z,6.81
2018-03-11T04:32:13.673Z,6.77
2018-03-11T04:33:23.840Z,6.75
2018-03-11T04:34:34.193Z,6.75
2018-03-11T04:35:44.308Z,6.72
2018-03-11T04:36:54.673Z,6.78
2018-03-11T04:38:04.698Z,6.72
2018-03-11T04:39:14.546Z,6.72
2018-03-11T04:40:24.907Z,6.74
2018-03-11T04:41:35.034Z,6.77
2018-03-11T04:42:44.919Z,6.74
2018-03-11T04:43:55.071Z,6.64
2018-03-11T04:45:05.302Z,6.56
2018-03-11T04:46:14.734Z,6.59
2018-03-11T04:47:24.896Z,6.54
2018-03-11T04:48:34.774Z,6.49
2018-03-11T04:49:44.717Z,6.52
2018-03-11T04:50:54.594Z,6.54
2018-03-11T04:52:04.736Z,6.46
2018-03-11T04:53:14.648Z,6.53
2018-03-11T04:54:25.011Z,6.48
2018-03-11T04:55:35.209Z,6.48
2018-03-11T04:56:45.450Z,6.54
2018-03-11T04:57:55.629Z,6.46
2018-03-11T04:59:05.786Z,6.45
2018-03-11T05:00:15.985Z,6.3
2018-03-11T05:01:26.112Z,6.28
2018-03-11T05:02:35.633Z,6.31
2018-03-11T05:03:45.780Z,6.28
2018-03-11T05:04:55.950Z,6.31
2018-03-11T05:06:06.117Z,6.27
2018-03-11T05:07:16.263Z,6.36
2018-03-11T05:08:31.936Z,6.26
2018-03-11T05:09:41.816Z,6.27
2018-03-11T05:10:52.362Z,6.27
2018-03-11T05:12:02.221Z,6.21
2018-03-11T05:13:11.789Z,6.24
2018-03-11T05:14:21.754Z,6.21
2018-03-11T05:15:31.915Z,6.3
2018-03-11T05:16:42.057Z,6.28
2018-03-11T05:17:52.182Z,6.23
2018-03-11T05:19:02.315Z,6.19
2018-03-11T05:20:12.365Z,6.24
2018-03-11T05:21:22.240Z,6.24
2018-03-11T05:22:32.358Z,6.24
2018-03-11T05:23:42.488Z,6.23
2018-03-11T05:24:52.757Z,6.26
2018-03-11T05:26:02.934Z,6.16
2018-03-11T05:27:12.890Z,6.24
2018-03-11T05:28:22.825Z,6.26
2018-03-11T05:29:32.327Z,6.21
2018-03-11T05:30:42.516Z,6.2
2018-03-11T05:31:52.652Z,6.11
2018-03-11T05:33:02.861Z,6.17
2018-03-11T05:34:12.456Z,6.14
2018-03-11T05:35:22.624Z,6.08
2018-03-11T05:36:33.180Z,6.08
2018-03-11T05:37:43.110Z,6.06
2018-03-11T05:38:53.096Z,6.09
2018-03-11T05:40:03.273Z,6.02
2018-03-11T05:41:12.892Z,6.09
2018-03-11T05:42:22.797Z,6.06
2018-03-11T05:43:32.971Z,6.08
2018-03-11T05:44:43.208Z,6.05
2018-03-11T05:45:53.342Z,6.01
2018-03-11T05:47:03.279Z,6.01
2018-03-11T05:48:13.406Z,6.01
2018-03-11T05:49:23.549Z,6.02
2018-03-11T05:50:33.863Z,6.09
2018-03-11T05:51:44.023Z,6.08
2018-03-11T05:52:54.157Z,6.08
2018-03-11T05:54:04.304Z,6.03
2018-03-11T05:55:14.511Z,6.09
2018-03-11T05:56:24.783Z,6.08
2018-03-11T05:57:34.741Z,6.06
2018-03-11T05:58:44.866Z,6.09
2018-03-11T05:59:55.044Z,6.05
2018-03-11T06:01:05.301Z,6.14
2018-03-11T06:02:15.496Z,6.12
2018-03-11T06:03:25.370Z,6.2
2018-03-11T06:04:35.238Z,6.19
2018-03-11T06:05:45.200Z,6.12
2018-03-11T06:06:55.360Z,6.2
2018-03-11T06:08:05.641Z,6.2
2018-03-11T06:09:15.753Z,6.19
2018-03-11T06:10:25.906Z,6.19
2018-03-11T06:11:35.768Z,6.23
2018-03-11T06:12:45.926Z,6.19
2018-03-11T06:13:56.123Z,6.28
2018-03-11T06:15:06.019Z,6.35
2018-03-11T06:16:16.201Z,6.26
2018-03-11T06:17:26.087Z,6.38
2018-03-11T06:18:36.225Z,6.34
2018-03-11T06:19:46.393Z,6.26
2018-03-11T06:20:56.002Z,6.3
2018-03-11T06:22:06.152Z,6.26
2018-03-11T06:23:15.964Z,6.3
2018-03-11T06:24:26.081Z,6.26
2018-03-11T06:25:36.223Z,6.38
2018-03-11T06:26:46.405Z,6.41
2018-03-11T06:27:56.229Z,6.48
2018-03-11T06:29:06.391Z,6.48
2018-03-11T06:30:16.530Z,6.45
2018-03-11T06:31:26.649Z,6.39
2018-03-11T06:32:36.895Z,6.49
2018-03-11T06:33:47.043Z,6.48
2018-03-11T06:34:57.219Z,6.52
2018-03-11T06:36:07.500Z,6.48
2018-03-11T06:37:17.705Z,6.59
2018-03-11T06:38:27.897Z,6.49
2018-03-11T06:39:37.789Z,6.48
2018-03-11T06:40:47.659Z,6.49
2018-03-11T06:41:57.606Z,6.52
2018-03-11T06:43:07.818Z,6.63
2018-03-11T06:44:18.052Z,6.59
2018-03-11T06:45:28.189Z,6.59
2018-03-11T06:46:38.364Z,6.79
2018-03-11T06:47:48.555Z,6.78
2018-03-11T06:48:58.701Z,6.77
2018-03-11T06:50:08.817Z,6.85
2018-03-11T06:51:19.010Z,6.95
2018-03-11T06:52:29.171Z,6.9
2018-03-11T06:53:39.051Z,6.93
2018-03-11T06:54:49.174Z,6.97
2018-03-11T06:55:59.054Z,7
2018-03-11T06:57:09.219Z,7.06
2018-03-11T06:58:19.411Z,7.18
2018-03-11T06:59:29.552Z,7.21
2018-03-11T07:00:39.434Z,7.21
2018-03-11T07:01:49.229Z,7.29
2018-03-11T07:02:59.118Z,7.41
2018-03-11T07:04:09.525Z,7.44
2018-03-11T07:05:19.669Z,7.55
2018-03-11T07:06:29.943Z,7.59
2018-03-11T07:07:40.084Z,7.62
2018-03-11T07:08:50.370Z,7.72
2018-03-11T07:10:00.551Z,7.77
2018-03-11T07:11:10.744Z,7.82
2018-03-11T07:12:20.989Z,7.76
2018-03-11T07:13:31.184Z,7.79
2018-03-11T07:14:40.964Z,7.87
2018-03-11T07:15:50.835Z,7.88
2018-03-11T07:17:00.380Z,7.97
2018-03-11T07:18:10.190Z,7.97
2018-03-11T07:19:20.365Z,8.05
2018-03-11T07:20:30.574Z,7.98
2018-03-11T07:21:40.392Z,7.95
2018-03-11T07:22:50.303Z,7.85
2018-03-11T07:24:00.189Z,7.87
2018-03-11T07:25:10.515Z,7.77
2018-03-11T07:26:20.798Z,7.84
2018-03-11T07:27:31.042Z,7.87
2018-03-11T07:28:41.201Z,7.9
2018-03-11T07:29:51.080Z,7.9
2018-03-11T07:31:00.958Z,7.79
2018-03-11T07:32:11.108Z,7.77
2018-03-11T07:33:21.298Z,7.84
2018-03-11T07:34:31.260Z,7.79
2018-03-11T07:35:41.011Z,7.9
2018-03-11T07:36:51.012Z,7.9
2018-03-11T07:38:01.163Z,7.88
2018-03-11T07:39:11.140Z,7.91
2018-03-11T07:40:21.418Z,8.02
2018-03-11T07:41:31.654Z,7.97
2018-03-11T07:42:41.608Z,7.99
2018-03-11T07:43:51.788Z,8.1
2018-03-11T07:45:01.951Z,8.16
2018-03-11T07:46:12.333Z,8.4
2018-03-11T07:47:22.479Z,8.52
2018-03-11T07:48:32.696Z,8.58
2018-03-11T07:49:42.622Z,8.83
2018-03-11T07:50:52.913Z,9.02
2018-03-11T07:52:02.442Z,9.33
2018-03-11T07:53:12.333Z,9.78
2018-03-11T07:54:21.963Z,10.51
2018-03-11T07:55:31.931Z,11.34
2018-03-11T07:56:42.116Z,12.26
2018-03-11T07:57:51.994Z,12.9
2018-03-11T07:59:01.633Z,13.64
2018-03-11T08:00:11.517Z,14.18
2018-03-11T08:01:21.460Z,14.65
2018-03-11T08:02:31.617Z,15.05
2018-03-11T08:03:41.777Z,15.42
2018-03-11T08:04:51.966Z,15.69
2018-03-11T08:06:02.137Z,15.95
2018-03-11T08:07:12.082Z,16.42
2018-03-11T08:08:22.261Z,16.69
2018-03-11T08:09:32.180Z,17.08
2018-03-11T08:10:42.341Z,17.17
2018-03-11T08:11:54.481Z,17.4
2018-03-11T08:13:05.335Z,17.58
2018-03-11T08:19:20.084Z,18.4
2018-03-11T08:21:49.749Z,19.13
2018-03-11T08:24:19.171Z,19.46
2018-03-11T08:25:29.112Z,19.56
2018-03-11T08:26:39.063Z,19.61
2018-03-11T08:27:49.252Z,19.9
2018-03-11T08:28:59.509Z,20.16
2018-03-11T08:30:09.728Z,20.34
2018-03-11T08:31:19.982Z,20.2
2018-03-11T08:32:30.229Z,20.16
2018-03-11T08:33:40.195Z,20.04
2018-03-11T08:34:50.375Z,19.83
2018-03-11T08:36:00.309Z,19.76
2018-03-11T08:37:10.596Z,19.63
2018-03-11T08:38:20.508Z,19.67
2018-03-11T08:39:30.676Z,19.73
2018-03-11T08:40:40.868Z,19.82
2018-03-11T08:41:51.122Z,19.61
2018-03-11T08:43:01.325Z,19.31
2018-03-11T08:44:10.584Z,18.71
2018-03-11T08:45:20.796Z,18.1
2018-03-11T08:46:31.033Z,17.43
2018-03-11T08:47:41.267Z,16.96
2018-03-11T08:48:51.426Z,16.44
2018-03-11T08:50:01.633Z,16.07
2018-03-11T08:51:11.303Z,15.66
2018-03-11T08:52:21.557Z,15.23
2018-03-11T08:53:31.816Z,14.87
2018-03-11T08:54:41.957Z,14.52
2018-03-11T08:55:52.164Z,14.25
2018-03-11T08:57:02.356Z,14.13
2018-03-11T08:58:12.502Z,14.02
2018-03-11T08:59:22.694Z,13.79
2018-03-11T09:00:32.929Z,13.54
2018-03-11T09:01:43.155Z,13.48
2018-03-11T09:02:53.372Z,13.33
2018-03-11T09:04:03.690Z,13.21
2018-03-11T09:05:13.927Z,13.12
2018-03-11T09:06:24.120Z,13.12
2018-03-11T09:07:34.302Z,13.12
2018-03-11T09:08:44.111Z,13.49
2018-03-11T09:09:54.329Z,14.13
2018-03-11T09:11:04.834Z,15.03
2018-03-11T09:12:15.025Z,15.79
2018-03-11T09:13:25.225Z,16.54
2018-03-11T09:14:35.424Z,17.32
2018-03-11T09:15:45.696Z,17.95
2018-03-11T09:16:55.948Z,18.52
2018-03-11T09:18:06.141Z,19.24
2018-03-11T09:19:16.359Z,19.95
2018-03-11T09:20:26.049Z,20.51
2018-03-11T09:21:36.290Z,21.06
2018-03-11T09:22:46.497Z,21.38
2018-03-11T09:23:56.692Z,21.88
2018-03-11T09:25:06.194Z,22.16
2018-03-11T09:26:16.191Z,22.45
2018-03-11T09:27:26.904Z,22.68
2018-03-11T09:28:37.087Z,23.09
2018-03-11T09:29:48.175Z,23.08
2018-03-11T09:30:58.108Z,23.21
2018-03-11T09:32:09.037Z,23.43
2018-03-11T09:33:19.336Z,23.51
2018-03-11T09:34:29.542Z,23.65
2018-03-11T09:35:39.475Z,23.79
2018-03-11T09:36:49.672Z,23.75
2018-03-11T09:37:59.858Z,23.92
2018-03-11T09:39:09.523Z,23.97
2018-03-11T09:40:19.651Z,23.98
2018-03-11T09:41:29.668Z,24.15
2018-03-11T09:42:39.606Z,24.22
2018-03-11T09:43:49.544Z,24.32
2018-03-11T09:44:59.733Z,24.57
2018-03-11T09:46:09.953Z,24.62
2018-03-11T09:47:20.208Z,24.5
2018-03-11T09:48:30.451Z,24.47
2018-03-11T09:49:40.641Z,24.34
2018-03-11T09:50:50.862Z,24.12
2018-03-11T09:52:00.793Z,24.06
2018-03-11T09:53:10.983Z,24.13
2018-03-11T09:54:20.868Z,24.24
2018-03-11T09:55:30.871Z,24.09
2018-03-11T09:56:41.070Z,24.06
2018-03-11T09:57:51.313Z,23.92
2018-03-11T09:59:01.501Z,23.76
2018-03-11T10:00:11.695Z,23.77
2018-03-11T10:01:21.863Z,23.8
2018-03-11T10:02:32.122Z,23.73
2018-03-11T10:03:42.329Z,23.77
2018-03-11T10:04:52.659Z,23.75
2018-03-11T10:06:02.885Z,23.53
2018-03-11T10:07:12.806Z,23.35
2018-03-11T10:08:23.026Z,23.18
2018-03-11T10:09:33.016Z,23.18
2018-03-11T10:10:43.225Z,23.01
2018-03-11T10:11:53.168Z,22.98
2018-03-11T10:13:03.500Z,22.9
2018-03-11T10:14:13.759Z,22.67
2018-03-11T10:15:24.677Z,22.67
2018-03-11T10:16:34.915Z,22.78
2018-03-11T10:17:44.838Z,22.58
2018-03-11T10:18:54.809Z,22.43
2018-03-11T10:20:05.004Z,22.45
2018-03-11T10:21:14.922Z,22.55
2018-03-11T10:22:25.304Z,22.46
2018-03-11T10:23:35.235Z,22.43
2018-03-11T10:24:45.506Z,22.52
2018-03-11T10:25:55.723Z,22.57
2018-03-11T10:27:06.204Z,22.57
2018-03-11T10:28:16.448Z,22.55
2018-03-11T10:29:26.733Z,22.2
2018-03-11T10:30:36.574Z,21.88
2018-03-11T10:31:46.830Z,21.5
2018-03-11T10:32:57.034Z,21.18
2018-03-11T10:34:06.987Z,21.15
2018-03-11T10:35:17.081Z,21.15
2018-03-11T10:36:27.151Z,21.1
2018-03-11T10:37:37.307Z,21.22
2018-03-11T10:38:47.481Z,21.3
2018-03-11T10:39:58.038Z,21.27
2018-03-11T10:41:07.984Z,21.57
2018-03-11T10:42:18.184Z,21.57
2018-03-11T10:43:28.353Z,21.57
2018-03-11T10:44:53.060Z,21.58
2018-03-11T10:46:03.392Z,21.69
2018-03-11T10:47:13.209Z,21.71
2018-03-11T10:48:23.172Z,21.88
2018-03-11T10:49:33.032Z,22.02
2018-03-11T10:50:43.563Z,22.05
2018-03-11T10:51:54.082Z,21.91
2018-03-11T10:53:04.198Z,21.73
2018-03-11T10:54:13.803Z,21.22
2018-03-11T10:55:25.096Z,20.76
2018-03-11T10:56:35.111Z,20.14
2018-03-11T10:57:45.327Z,19.63
2018-03-11T10:58:55.535Z,19.4
2018-03-11T11:00:05.725Z,19.16
2018-03-11T11:01:15.683Z,18.9
2018-03-11T11:02:25.659Z,18.6
2018-03-11T11:03:35.633Z,18.4
2018-03-11T11:04:45.464Z,18.42
2018-03-11T11:06:01.989Z,18.28
2018-03-11T11:07:12.296Z,18.46
2018-03-11T11:08:21.914Z,18.53
2018-03-11T11:09:31.948Z,18.34
2018-03-11T11:10:41.863Z,17.92
2018-03-11T11:11:51.477Z,17.4
2018-03-11T11:13:00.897Z,16.84
2018-03-11T11:14:10.846Z,16.46
2018-03-11T11:15:20.900Z,15.91
2018-03-11T11:16:30.832Z,15.53
2018-03-11T11:17:41.019Z,15.36
2018-03-11T11:18:50.948Z,15.27
2018-03-11T11:20:01.141Z,15.03
2018-03-11T11:21:11.400Z,14.74
2018-03-11T11:22:21.658Z,14.5
2018-03-11T11:23:31.921Z,14.25
2018-03-11T11:24:42.148Z,14.16
2018-03-11T11:25:52.356Z,14.13
2018-03-11T11:27:02.576Z,14
2018-03-11T11:28:12.752Z,13.86
2018-03-11T11:29:22.954Z,13.86
2018-03-11T11:30:33.144Z,13.81
2018-03-11T11:31:43.469Z,13.84
2018-03-11T11:32:53.696Z,13.94
2018-03-11T11:34:03.992Z,14.09
2018-03-11T11:35:14.177Z,14.52
2018-03-11T11:36:24.398Z,14.78
2018-03-11T11:37:34.709Z,14.96
2018-03-11T11:38:44.888Z,15.06
2018-03-11T11:39:55.082Z,15.23
2018-03-11T11:41:05.251Z,15.35
2018-03-11T11:42:15.475Z,15.39
2018-03-11T11:43:25.756Z,15.55
2018-03-11T11:44:35.945Z,15.66
2018-03-11T11:45:46.236Z,15.79
2018-03-11T11:46:56.383Z,15.79
2018-03-11T11:48:06.616Z,15.87
2018-03-11T11:49:16.531Z,15.99
2018-03-11T11:50:26.713Z,16.04
2018-03-11T11:51:37.109Z,16.32
2018-03-11T11:52:47.385Z,16.43
2018-03-11T11:53:57.655Z,16.47
2018-03-11T11:55:07.628Z,16.49
2018-03-11T11:56:18.107Z,16.65
2018-03-11T11:57:28.369Z,16.72
2018-03-11T11:58:38.582Z,16.96
2018-03-11T11:59:48.776Z,16.96
2018-03-11T12:00:58.984Z,17.04
2018-03-11T12:02:09.192Z,17.19
2018-03-11T12:03:19.393Z,17.46
2018-03-11T12:04:29.728Z,17.52
2018-03-11T12:05:39.915Z,17.64
2018-03-11T12:06:50.171Z,17.75
2018-03-11T12:08:00.353Z,18.07
2018-03-11T12:09:10.601Z,18.19
2018-03-11T12:10:20.805Z,18.31
2018-03-11T12:11:31.065Z,18.53
2018-03-11T12:12:41.249Z,18.72
2018-03-11T12:13:51.182Z,18.63
2018-03-11T12:15:01.412Z,18.78
2018-03-11T12:16:11.475Z,18.86
2018-03-11T12:17:23.084Z,18.98
2018-03-11T12:18:33.091Z,19.15
2018-03-11T12:19:43.118Z,19.21
2018-03-11T12:20:53.093Z,19.27
2018-03-11T12:22:02.689Z,19.31
2018-03-11T12:23:12.869Z,19.35
2018-03-11T12:24:23.060Z,19.13
2018-03-11T12:25:32.760Z,19.05
2018-03-11T12:26:43.061Z,18.79
2018-03-11T12:27:53.353Z,18.4
2018-03-11T12:29:03.245Z,18.13
2018-03-11T12:30:13.501Z,17.72
2018-03-11T12:31:23.583Z,17.52
2018-03-11T12:32:33.760Z,17.39
2018-03-11T12:33:43.957Z,17.32
2018-03-11T12:34:54.216Z,17.38
2018-03-11T12:36:04.444Z,17.36
2018-03-11T12:37:14.711Z,17.3
2018-03-11T12:38:25.050Z,17.16
2018-03-11T12:39:35.455Z,17.11
2018-03-11T12:40:46.245Z,17.02
2018-03-11T12:41:56.563Z,16.79
2018-03-11T12:43:06.853Z,16.39
2018-03-11T12:44:17.075Z,16.35
2018-03-11T12:45:27.319Z,16.17
2018-03-11T12:46:37.746Z,16.1
2018-03-11T12:47:47.956Z,15.96
2018-03-11T12:48:58.156Z,15.99
2018-03-11T12:50:08.427Z,15.92
2018-03-11T12:51:18.637Z,15.91
2018-03-11T12:52:28.848Z,15.88
2018-03-11T12:53:38.762Z,15.82
2018-03-11T12:54:49.051Z,15.8
2018-03-11T12:55:58.674Z,15.78
2018-03-11T12:57:08.515Z,15.72
2018-03-11T12:58:18.816Z,15.73
2018-03-11T12:59:28.837Z,15.64
2018-03-11T13:00:39.108Z,15.73
2018-03-11T13:01:49.081Z,15.84
2018-03-11T13:02:59.427Z,15.95
2018-03-11T13:04:09.423Z,16.02
2018-03-11T13:05:19.689Z,16.24
2018-03-11T13:06:29.974Z,16.42
2018-03-11T13:07:40.216Z,16.5
2018-03-11T13:08:50.519Z,16.87
2018-03-11T13:10:00.540Z,17.08
2018-03-11T13:11:10.545Z,17.28
2018-03-11T13:12:20.641Z,17.42
2018-03-11T13:13:30.911Z,17.5
2018-03-11T13:14:41.160Z,17.58
2018-03-11T13:15:51.341Z,17.57
2018-03-11T13:17:01.523Z,17.61
2018-03-11T13:18:11.597Z,17.65
2018-03-11T13:19:21.680Z,17.77
2018-03-11T13:20:31.962Z,17.85
2018-03-11T13:21:42.481Z,17.86
2018-03-11T13:22:52.678Z,17.92
2018-03-11T13:24:02.898Z,17.65
2018-03-11T13:25:13.097Z,17.43
2018-03-11T13:26:23.348Z,17.2
2018-03-11T13:27:33.566Z,17.08
2018-03-11T13:28:43.824Z,16.91
2018-03-11T13:29:54.017Z,16.83
2018-03-11T13:31:04.264Z,16.72
2018-03-11T13:32:14.494Z,16.79
2018-03-11T13:33:24.739Z,16.83
2018-03-11T13:34:34.973Z,16.71
2018-03-11T13:35:45.145Z,16.69
2018-03-11T13:36:55.367Z,16.57
2018-03-11T13:38:05.810Z,16.47
2018-03-11T13:39:15.993Z,16.42
2018-03-11T13:40:26.175Z,16.31
2018-03-11T13:41:36.080Z,16.14
2018-03-11T13:42:46.306Z,16.2
2018-03-11T13:43:56.572Z,16.13
2018-03-11T13:45:06.760Z,16.13
2018-03-11T13:46:16.970Z,15.98
2018-03-11T13:47:27.172Z,15.92
2018-03-11T13:48:37.337Z,15.78
2018-03-11T13:49:47.510Z,15.66
2018-03-11T13:50:57.715Z,15.73
2018-03-11T13:52:07.916Z,15.61
2018-03-11T13:53:18.112Z,15.55
2018-03-11T13:54:28.294Z,15.61
2018-03-11T13:55:38.638Z,15.55
2018-03-11T13:56:48.888Z,15.58
2018-03-11T13:57:58.579Z,15.57
2018-03-11T13:59:08.422Z,15.58
2018-03-11T14:00:18.415Z,15.53
2018-03-11T14:01:28.782Z,15.5
2018-03-11T14:02:40.361Z,15.45
2018-03-11T14:03:50.576Z,15.4
2018-03-11T14:05:00.755Z,15.39
2018-03-11T14:06:10.583Z,15.33
2018-03-11T14:07:20.828Z,15.23
2018-03-11T14:08:30.982Z,15.32
2018-03-11T14:09:42.021Z,15.2
2018-03-11T14:10:51.950Z,15.25
2018-03-11T14:12:01.783Z,15.13
2018-03-11T14:13:11.790Z,15.14
2018-03-11T14:14:21.988Z,15.09
2018-03-11T14:15:32.244Z,15.08
2018-03-11T14:16:42.434Z,15
2018-03-11T14:17:53.002Z,14.96
2018-03-11T14:19:03.211Z,15.02
2018-03-11T14:20:13.192Z,14.98
2018-03-11T14:21:23.403Z,14.81
2018-03-11T14:22:33.669Z,14.75
2018-03-11T14:23:43.714Z,14.7
2018-03-11T14:24:53.904Z,14.65
2018-03-11T14:26:04.163Z,14.67
2018-03-11T14:27:14.383Z,14.67
2018-03-11T14:28:24.598Z,14.5
2018-03-11T14:29:34.865Z,14.58
2018-03-11T14:30:44.801Z,14.51
2018-03-11T14:31:55.005Z,14.54
2018-03-11T14:33:05.167Z,14.56
2018-03-11T14:34:15.088Z,14.58
2018-03-11T14:35:25.270Z,14.47
2018-03-11T14:36:35.464Z,14.56
2018-03-11T14:37:45.645Z,14.51
2018-03-11T14:38:55.827Z,14.63
2018-03-11T14:40:06.033Z,14.58
2018-03-11T14:41:16.270Z,14.58
2018-03-11T14:42:26.502Z,14.58
2018-03-11T14:43:36.685Z,14.48
2018-03-11T14:44:46.930Z,14.52
2018-03-11T14:45:57.201Z,14.51
2018-03-11T14:47:07.387Z,14.5
2018-03-11T14:48:17.583Z,14.37
2018-03-11T14:49:27.780Z,14.4
2018-03-11T14:50:37.719Z,14.31
2018-03-11T14:51:48.027Z,14.26
2018-03-11T14:52:58.379Z,14.25
2018-03-11T14:54:08.576Z,14.22
2018-03-11T14:55:18.794Z,14.18
2018-03-11T14:56:29.048Z,14.14
2018-03-11T14:57:39.379Z,14.09
2018-03-11T14:58:49.593Z,14.14
2018-03-11T14:59:59.775Z,14.21
2018-03-11T15:01:09.843Z,14.13
2018-03-11T15:02:20.037Z,14.04
2018-03-11T15:03:29.972Z,14.14
2018-03-11T15:04:40.163Z,14
2018-03-11T15:05:50.397Z,14
2018-03-11T15:07:00.051Z,13.94
2018-03-11T15:08:10.304Z,14
2018-03-11T15:09:20.225Z,14.04
2018-03-11T15:10:30.143Z,14.02
2018-03-11T15:11:40.203Z,13.94
2018-03-11T15:12:50.505Z,14.03
2018-03-11T15:14:00.466Z,13.91
2018-03-11T15:15:10.669Z,13.95
2018-03-11T15:16:20.653Z,13.95
2018-03-11T15:17:30.927Z,13.88
2018-03-11T15:18:40.954Z,13.88
2018-03-11T15:19:50.900Z,13.88
2018-03-11T15:21:01.154Z,13.86
2018-03-11T15:22:12.303Z,13.95
2018-03-11T15:23:22.246Z,13.88
2018-03-11T15:24:32.415Z,13.86
2018-03-11T15:25:42.597Z,13.88
2018-03-11T15:26:52.299Z,13.85
2018-03-11T15:28:02.600Z,13.95
2018-03-11T15:29:12.659Z,13.95
2018-03-11T15:30:22.700Z,14.02